Time;durP1;ratioP1;P1;durP2;ratioP2;P2;SDS_P1;SDS_P2;PMS_P1;PMS_P2;Temp;Humidity;BMP_temperature;BMP_pressure;BME280_temperature;BME280_humidity;BME280_pressure;Samples;Min_cycle;Max_cycle;Signal;HPM_P1;HPM_P2
2022/01/05 00:01:00;;;;;;;16.65;4.65;;;;;;;12.31;59.62;100592.55;1684066;83;21561;-53
2022/01/05 00:03:27;;;;;;;17.00;5.53;;;;;;;12.32;59.61;100594.72;1701481;82;21482;-54
2022/01/05 00:05:53;;;;;;;15.60;4.75;;;;;;;12.33;59.59;100595.96;1694469;83;21007;-53
2022/01/05 00:08:24;;;;;;;15.35;4.70;;;;;;;12.34;59.54;100589.86;1699132;83;21515;-54
2022/01/05 00:10:48;;;;;;;10.45;4.35;;;;;;;12.37;59.55;100588.88;1692105;83;21046;-54
2022/01/05 00:13:15;;;;;;;12.95;4.45;;;;;;;12.36;59.52;100575.01;1692245;83;21032;-54
2022/01/05 00:15:41;;;;;;;12.58;4.58;;;;;;;12.38;59.47;100561.91;1701886;82;21078;-54
2022/01/05 00:18:08;;;;;;;10.88;4.15;;;;;;;12.37;59.41;100548.00;1694708;83;21010;-53
2022/01/05 00:20:35;;;;;;;17.80;4.55;;;;;;;12.37;59.45;100546.69;1702215;83;21055;-54
2022/01/05 00:23:01;;;;;;;14.80;5.08;;;;;;;12.37;59.46;100547.14;1697666;83;21053;-54
2022/01/05 00:25:28;;;;;;;13.20;4.45;;;;;;;12.36;59.52;100545.00;1689971;82;21105;-54
2022/01/05 00:27:54;;;;;;;11.35;4.97;;;;;;;12.37;59.57;100546.69;1704578;83;21089;-53
2022/01/05 00:30:22;;;;;;;12.15;4.28;;;;;;;12.35;59.60;100542.42;1697702;83;21049;-53
2022/01/05 00:32:48;;;;;;;15.58;5.47;;;;;;;12.35;59.65;100538.50;1692914;82;21015;-54
2022/01/05 00:35:15;;;;;;;17.92;5.33;;;;;;;12.37;59.63;100531.03;1698067;84;21014;-54
2022/01/05 00:37:42;;;;;;;13.55;5.30;;;;;;;12.35;59.71;100525.02;1691688;83;21068;-53
2022/01/05 00:40:10;;;;;;;14.45;5.58;;;;;;;12.36;59.66;100517.61;1692011;82;21040;-54
2022/01/05 00:42:36;;;;;;;17.15;6.20;;;;;;;12.37;59.68;100516.69;1694672;83;20971;-53
2022/01/05 00:45:04;;;;;;;18.27;5.05;;;;;;;12.39;59.73;100517.94;1687552;83;21097;-54
2022/01/05 00:47:31;;;;;;;11.18;4.85;;;;;;;12.38;59.81;100508.41;1716665;83;21573;-54
2022/01/05 00:49:58;;;;;;;17.55;5.50;;;;;;;12.36;59.90;100509.78;1675775;83;21097;-54
2022/01/05 00:52:24;;;;;;;13.35;4.92;;;;;;;12.34;59.95;100506.37;1674265;84;21061;-53
2022/01/05 00:54:51;;;;;;;15.95;5.53;;;;;;;12.34;60.01;100508.11;1676923;84;21018;-54
2022/01/05 00:57:17;;;;;;;13.45;5.30;;;;;;;12.34;60.11;100519.41;1673219;85;21061;-54
2022/01/05 00:59:45;;;;;;;15.35;5.50;;;;;;;12.34;60.15;100518.11;1664631;84;21489;-54
2022/01/05 01:02:12;;;;;;;14.33;5.55;;;;;;;12.35;60.17;100518.94;1662297;84;21559;-54
2022/01/05 01:04:38;;;;;;;20.37;5.55;;;;;;;12.36;60.21;100513.69;1669765;85;21527;-54
2022/01/05 01:07:05;;;;;;;19.07;6.05;;;;;;;12.38;60.16;100514.49;1666630;84;21045;-54
2022/01/05 01:09:31;;;;;;;17.00;5.35;;;;;;;12.38;60.22;100501.45;1663586;84;21032;-54
2022/01/05 01:11:58;;;;;;;16.27;5.83;;;;;;;12.39;60.20;100491.39;1675144;84;21010;-54
2022/01/05 01:14:25;;;;;;;17.85;6.97;;;;;;;12.40;60.16;100494.42;1672833;85;20984;-54
2022/01/05 01:16:51;;;;;;;13.85;5.83;;;;;;;12.43;60.14;100501.27;1702219;83;21542;-54
2022/01/05 01:19:18;;;;;;;19.48;5.65;;;;;;;12.43;60.15;100512.56;1691397;82;21041;-54
2022/01/05 01:21:44;;;;;;;15.15;5.83;;;;;;;12.43;60.21;100523.01;1674857;84;21511;-54
2022/01/05 01:24:10;;;;;;;15.98;6.78;;;;;;;12.45;60.20;100520.34;1689918;83;21569;-54
2022/01/05 01:26:38;;;;;;;15.50;5.47;;;;;;;12.45;60.19;100515.98;1699902;83;21085;-55
2022/01/05 01:29:05;;;;;;;19.90;6.83;;;;;;;12.46;60.23;100507.70;1697373;83;21030;-54
2022/01/05 01:31:32;;;;;;;16.52;6.20;;;;;;;12.46;60.26;100504.66;1682793;83;21066;-53
2022/01/05 01:33:58;;;;;;;20.52;5.90;;;;;;;12.45;60.32;100501.63;1698582;83;20983;-54
2022/01/05 01:36:26;;;;;;;16.42;5.70;;;;;;;12.47;60.31;100502.91;1702067;83;21090;-54
2022/01/05 01:38:52;;;;;;;20.15;6.58;;;;;;;12.45;60.42;100500.32;1704380;82;21569;-53
2022/01/05 01:41:19;;;;;;;17.05;6.15;;;;;;;12.44;60.44;100497.33;1694501;83;21050;-54
2022/01/05 01:43:45;;;;;;;20.45;7.12;;;;;;;12.45;60.50;100502.07;1692762;83;21087;-54
2022/01/05 01:46:12;;;;;;;21.93;7.30;;;;;;;12.46;60.54;100494.22;1698300;83;21466;-54
2022/01/05 01:48:40;;;;;;;18.32;6.20;;;;;;;12.45;60.55;100495.10;1679171;84;21085;-54
2022/01/05 01:51:06;;;;;;;17.67;6.37;;;;;;;12.43;60.60;100494.30;1697718;83;21002;-54
2022/01/05 01:53:33;;;;;;;14.58;6.00;;;;;;;12.42;60.70;100497.83;1694189;83;21624;-54
2022/01/05 01:56:01;;;;;;;21.02;6.10;;;;;;;12.41;60.74;100496.11;1691837;82;21093;-54
2022/01/05 01:58:35;;;;;;;15.83;6.00;;;;;;;12.43;60.80;100503.88;1703486;83;21553;-54
2022/01/05 02:01:02;;;;;;;18.82;6.78;;;;;;;12.43;60.85;100498.22;1669562;84;21118;-54
2022/01/05 02:03:29;;;;;;;19.12;6.33;;;;;;;12.45;60.72;100500.32;1677383;83;21518;-54
2022/01/05 02:05:55;;;;;;;16.85;6.67;;;;;;;12.45;60.71;100500.32;1690555;83;21628;-54
2022/01/05 02:08:22;;;;;;;25.60;7.35;;;;;;;12.45;60.75;100486.41;1686711;83;21069;-54
2022/01/05 02:10:49;;;;;;;17.55;6.60;;;;;;;12.45;60.74;100487.27;1695130;83;21486;-54
2022/01/05 02:13:17;;;;;;;18.45;6.80;;;;;;;12.46;60.71;100483.78;1682544;83;21073;-54
2022/01/05 02:15:43;;;;;;;16.23;7.03;;;;;;;12.45;60.77;100479.45;1693279;84;21059;-54
2022/01/05 02:18:57;;;;;;;18.75;6.75;;;;;;;12.44;60.79;100474.28;1693797;83;21058;-54
2022/01/05 02:20:38;;;;;;;17.82;6.87;;;;;;;12.43;60.79;100470.81;1700776;83;21495;-54
2022/01/05 02:23:05;;;;;;;20.08;7.08;;;;;;;12.43;60.81;100469.52;1697363;83;22632;-54
2022/01/05 02:25:32;;;;;;;16.48;6.58;;;;;;;12.41;60.86;100468.71;1685220;83;21495;-54
2022/01/05 02:27:58;;;;;;;19.10;7.30;;;;;;;12.40;60.86;100463.55;1686825;83;20989;-54
2022/01/05 02:30:27;;;;;;;16.87;7.22;;;;;;;12.35;60.97;100457.17;1701583;83;21111;-54
2022/01/05 02:32:54;;;;;;;18.67;7.00;;;;;;;12.34;61.03;100439.84;1686525;83;21031;-55
2022/01/05 02:35:20;;;;;;;19.57;7.62;;;;;;;12.31;61.07;100442.53;1671648;85;21542;-54
2022/01/05 02:37:52;;;;;;;21.50;8.03;;;;;;;12.30;61.21;100443.45;1670563;84;21582;-54
2022/01/05 02:40:21;;;;;;;19.80;7.75;;;;;;;12.29;61.21;100441.73;1674804;85;21530;-54
2022/01/05 02:42:48;;;;;;;16.57;6.92;;;;;;;12.28;61.27;100442.66;1666858;85;20971;-54
2022/01/05 02:45:15;;;;;;;20.77;7.87;;;;;;;12.26;61.28;100426.20;1673378;84;21083;-55
2022/01/05 02:47:41;;;;;;;18.07;6.87;;;;;;;12.25;61.38;100416.66;1624742;86;21546;-54
2022/01/05 02:50:10;;;;;;;15.32;5.95;;;;;;;12.25;61.38;100423.17;1633484;86;21031;-55
2022/01/05 02:52:36;;;;;;;21.23;7.17;;;;;;;12.25;61.39;100427.09;1653962;85;21046;-54
2022/01/05 02:55:03;;;;;;;13.22;6.17;;;;;;;12.26;61.43;100435.33;1673595;85;21066;-54
2022/01/05 02:57:30;;;;;;;18.57;7.12;;;;;;;12.28;61.41;100437.88;1671182;85;21055;-54
2022/01/05 02:59:57;;;;;;;16.07;7.15;;;;;;;12.29;61.35;100422.17;1668903;85;21058;-54
2022/01/05 03:02:24;;;;;;;20.62;6.97;;;;;;;12.28;61.30;100426.52;1649637;85;20994;-55
2022/01/05 03:04:50;;;;;;;31.73;8.03;;;;;;;12.26;61.29;100404.02;1671944;84;21065;-54
2022/01/05 03:07:16;;;;;;;17.07;7.03;;;;;;;12.25;61.39;100404.91;1687090;85;21034;-54
2022/01/05 03:09:44;;;;;;;18.98;7.47;;;;;;;12.25;61.35;100403.61;1673081;84;21057;-54
2022/01/05 03:12:11;;;;;;;16.50;7.20;;;;;;;12.24;61.35;100409.75;1690134;83;21557;-54
2022/01/05 03:14:38;;;;;;;19.77;7.05;;;;;;;12.25;61.30;100407.52;1681605;83;21101;-54
2022/01/05 03:17:04;;;;;;;15.45;7.08;;;;;;;12.24;61.29;100407.97;1688300;84;21386;-54
2022/01/05 03:19:31;;;;;;;26.65;8.10;;;;;;;12.24;61.25;100404.53;1694920;83;21549;-54
2022/01/05 03:21:57;;;;;;;19.00;7.22;;;;;;;12.25;61.26;100403.61;1690757;83;21035;-54
2022/01/05 03:24:24;;;;;;;20.95;7.40;;;;;;;12.26;61.11;100407.94;1694719;83;21018;-54
2022/01/05 03:26:50;;;;;;;18.10;7.42;;;;;;;12.27;61.09;100407.02;1692038;83;21026;-55
2022/01/05 03:29:16;;;;;;;16.65;6.58;;;;;;;12.27;60.98;100403.11;1674186;85;21015;-54
2022/01/05 03:31:43;;;;;;;19.32;7.00;;;;;;;12.25;61.05;100404.47;1681166;83;21078;-55
2022/01/05 03:34:17;;;;;;;23.90;7.55;;;;;;;12.27;61.03;100408.32;1700995;83;21032;-54
2022/01/05 03:36:40;;;;;;;29.80;8.58;;;;;;;12.26;60.99;100413.16;1688357;83;21022;-55
2022/01/05 03:39:06;;;;;;;21.33;7.37;;;;;;;12.25;60.93;100407.52;1689568;83;21089;-54
2022/01/05 03:41:33;;;;;;;19.80;7.30;;;;;;;12.25;60.89;100408.83;1694572;83;21077;-55
2022/01/05 03:43:59;;;;;;;25.12;8.45;;;;;;;12.24;60.87;100407.14;1703032;83;21000;-56
2022/01/05 03:46:26;;;;;;;26.80;8.73;;;;;;;12.24;60.88;100399.31;1689279;84;21018;-55
2022/01/05 03:48:53;;;;;;;21.05;7.80;;;;;;;12.25;60.72;100395.78;1702921;83;21034;-54
2022/01/05 03:51:19;;;;;;;24.02;7.85;;;;;;;12.23;60.73;100395.84;1703571;83;21051;-54
2022/01/05 03:53:45;;;;;;;25.57;7.47;;;;;;;12.24;60.70;100401.92;1702893;83;21026;-54
2022/01/05 03:56:12;;;;;;;19.15;7.70;;;;;;;12.24;60.70;100407.14;1701937;83;20968;-54
2022/01/05 03:58:39;;;;;;;28.85;7.70;;;;;;;12.24;60.58;100414.97;1687238;83;21001;-55
2022/01/05 04:01:05;;;;;;;22.20;7.08;;;;;;;12.24;60.63;100405.84;1670017;85;20994;-55
2022/01/05 04:03:32;;;;;;;22.50;8.05;;;;;;;12.25;60.51;100405.77;1689548;83;21045;-54
2022/01/05 04:05:58;;;;;;;31.23;8.43;;;;;;;12.25;60.48;100402.31;1677887;84;21078;-54
2022/01/05 04:08:25;;;;;;;25.37;7.67;;;;;;;12.25;60.50;100395.78;1665543;85;21093;-54
2022/01/05 04:10:52;;;;;;;25.72;8.70;;;;;;;12.26;60.45;100396.20;1669771;85;21026;-54
2022/01/05 04:13:20;;;;;;;25.50;8.58;;;;;;;12.26;60.31;100390.98;1661217;85;21096;-55
2022/01/05 04:15:48;;;;;;;34.03;8.35;;;;;;;12.26;60.30;100396.20;1664150;85;21039;-55
2022/01/05 04:18:15;;;;;;;24.80;8.65;;;;;;;12.27;60.22;100393.97;1666048;85;21156;-54
2022/01/05 04:20:42;;;;;;;18.60;7.40;;;;;;;12.27;60.17;100396.58;1669933;85;21134;-54
2022/01/05 04:23:08;;;;;;;16.55;6.60;;;;;;;12.28;60.11;100400.91;1674230;84;21077;-54
2022/01/05 04:25:35;;;;;;;13.58;7.00;;;;;;;12.29;60.09;100406.52;1670659;84;21066;-54
2022/01/05 04:28:03;;;;;;;23.87;7.08;;;;;;;12.30;60.04;100403.02;1670984;84;21110;-54
2022/01/05 04:30:29;;;;;;;19.70;6.83;;;;;;;12.31;59.94;100407.31;1673910;84;21053;-56
2022/01/05 04:32:56;;;;;;;19.02;6.45;;;;;;;12.31;59.93;100411.23;1689671;83;21490;-54
2022/01/05 04:35:22;;;;;;;22.67;8.30;;;;;;;12.30;59.89;100401.71;1676505;83;21045;-54
2022/01/05 04:37:49;;;;;;;17.82;7.00;;;;;;;12.30;59.95;100406.92;1710102;83;21070;-54
2022/01/05 04:40:15;;;;;;;21.02;6.85;;;;;;;12.30;59.83;100399.10;1706949;83;21042;-54
2022/01/05 04:42:42;;;;;;;17.75;7.37;;;;;;;12.31;59.84;100403.84;1712171;83;21060;-54
2022/01/05 04:45:09;;;;;;;22.70;7.10;;;;;;;12.31;59.81;100392.96;1701189;83;21051;-54
2022/01/05 04:47:36;;;;;;;18.15;6.25;;;;;;;12.31;59.78;100392.96;1691359;83;21007;-54
2022/01/05 04:50:04;;;;;;;22.32;7.03;;;;;;;12.33;59.73;100398.12;1693912;83;21077;-54
2022/01/05 04:52:31;;;;;;;24.47;6.75;;;;;;;12.32;59.70;100395.98;1700666;83;21089;-54
2022/01/05 04:54:59;;;;;;;16.30;6.67;;;;;;;12.33;59.81;100393.77;1701125;83;21002;-54
2022/01/05 04:57:25;;;;;;;17.07;6.78;;;;;;;12.34;59.70;100397.23;1703406;83;21184;-54
2022/01/05 04:59:52;;;;;;;20.15;6.35;;;;;;;12.36;59.65;100405.86;1701963;83;21043;-54
2022/01/05 05:02:18;;;;;;;15.72;6.33;;;;;;;12.35;59.53;100399.78;1702224;83;21026;-54
2022/01/05 05:04:45;;;;;;;18.98;6.25;;;;;;;12.33;59.57;100401.59;1699655;82;21089;-54
2022/01/05 05:07:11;;;;;;;18.37;6.67;;;;;;;12.33;59.56;100406.80;1704534;83;21006;-54
2022/01/05 05:09:39;;;;;;;19.05;6.87;;;;;;;12.33;59.51;100405.95;1678335;84;21578;-54
2022/01/05 05:12:07;;;;;;;22.67;6.85;;;;;;;12.34;59.44;100404.61;1676454;85;21571;-54
2022/01/05 05:14:34;;;;;;;19.10;6.83;;;;;;;12.34;59.34;100398.09;1694287;83;21075;-54
2022/01/05 05:17:00;;;;;;;14.58;6.05;;;;;;;12.33;59.25;100398.98;1704738;83;21037;-54
2022/01/05 05:19:28;;;;;;;24.50;6.75;;;;;;;12.33;59.28;100400.28;1700099;82;21491;-54
2022/01/05 05:21:55;;;;;;;18.07;6.85;;;;;;;12.33;59.29;100406.80;1678390;84;21557;-54
2022/01/05 05:24:22;;;;;;;16.85;5.67;;;;;;;12.32;59.28;100405.56;1681698;83;21549;-54
2022/01/05 05:26:48;;;;;;;11.63;5.62;;;;;;;12.32;59.19;100412.95;1706757;82;21566;-53
2022/01/05 05:29:14;;;;;;;16.00;6.30;;;;;;;12.32;59.17;100418.61;1705978;83;21517;-53
2022/01/05 05:31:43;;;;;;;17.52;6.80;;;;;;;12.30;59.16;100418.67;1705431;82;21101;-53
2022/01/05 05:34:09;;;;;;;16.07;6.60;;;;;;;12.30;59.05;100430.41;1698677;83;21022;-53
2022/01/05 05:36:37;;;;;;;15.23;6.95;;;;;;;12.29;59.03;100427.38;1702907;83;21085;-54
2022/01/05 05:39:03;;;;;;;36.95;9.30;;;;;;;12.30;59.04;100433.02;1701786;83;21032;-53
2022/01/05 05:41:30;;;;;;;19.67;6.75;;;;;;;12.33;58.80;100441.17;1701847;83;21061;-53
2022/01/05 05:43:57;;;;;;;25.77;7.22;;;;;;;12.32;58.83;100454.69;1712661;83;21481;-53
2022/01/05 05:46:23;;;;;;;26.17;8.48;;;;;;;12.31;58.89;100456.02;1706848;83;20974;-54
2022/01/05 05:48:49;;;;;;;27.98;8.45;;;;;;;12.31;58.79;100454.27;1694492;83;21010;-54
2022/01/05 05:51:16;;;;;;;19.77;7.40;;;;;;;12.32;58.62;100462.52;1689352;82;21057;-53
2022/01/05 05:53:42;;;;;;;22.25;6.60;;;;;;;12.33;58.59;100458.13;1709687;82;21471;-53
2022/01/05 05:56:09;;;;;;;20.10;6.62;;;;;;;12.34;58.58;100464.63;1700508;82;21557;-53
2022/01/05 05:58:35;;;;;;;17.60;5.80;;;;;;;12.35;58.44;100465.00;1692060;83;21476;-53
2022/01/05 06:01:03;;;;;;;20.20;5.97;;;;;;;12.35;58.44;100462.40;1686744;83;21556;-53
2022/01/05 06:03:30;;;;;;;20.08;6.30;;;;;;;12.35;58.43;100454.56;1687585;83;21100;-53
2022/01/05 06:05:56;;;;;;;16.30;5.45;;;;;;;12.35;58.35;100442.83;1695785;83;21019;-53
2022/01/05 06:08:23;;;;;;;17.48;6.22;;;;;;;12.37;58.33;100455.38;1696739;83;20995;-53
2022/01/05 06:10:49;;;;;;;22.22;6.00;;;;;;;12.39;58.20;100459.22;1690790;83;21125;-54
2022/01/05 06:13:16;;;;;;;22.58;7.58;;;;;;;12.41;58.13;100467.41;1658629;84;21536;-53
2022/01/05 06:15:44;;;;;;;23.55;6.45;;;;;;;12.42;57.94;100471.73;1666070;85;21476;-53
2022/01/05 06:18:12;;;;;;;18.70;7.53;;;;;;;12.43;57.72;100467.34;1680546;83;21098;-53
2022/01/05 06:20:39;;;;;;;13.85;5.45;;;;;;;12.44;57.29;100464.71;1687459;83;21057;-53
2022/01/05 06:23:05;;;;;;;9.88;4.75;;;;;;;12.44;56.83;100456.88;1680457;83;21042;-53
2022/01/05 06:25:31;;;;;;;9.90;4.40;;;;;;;12.45;56.34;100466.84;1681489;83;21010;-53
2022/01/05 06:27:58;;;;;;;8.40;4.67;;;;;;;12.44;56.04;100464.71;1680685;84;21007;-55
2022/01/05 06:30:24;;;;;;;8.13;3.65;;;;;;;12.44;55.77;100468.63;1674747;85;20963;-53
2022/01/05 06:32:51;;;;;;;13.18;5.17;;;;;;;12.45;55.54;100460.31;1660048;86;21078;-53
2022/01/05 06:35:23;;;;;;;12.43;5.00;;;;;;;12.47;55.36;100468.98;1637191;86;21573;-53
2022/01/05 06:37:45;;;;;;;13.13;4.40;;;;;;;12.47;55.27;100472.41;1635336;86;21076;-53
2022/01/05 06:40:12;;;;;;;9.70;4.28;;;;;;;12.50;55.03;100474.94;1670434;84;21081;-53
2022/01/05 06:42:39;;;;;;;8.30;4.08;;;;;;;12.52;54.96;100461.83;1672235;84;21534;-53
2022/01/05 06:45:07;;;;;;;15.60;5.87;;;;;;;12.54;54.83;100461.33;1679180;85;21486;-53
2022/01/05 06:47:33;;;;;;;16.93;6.30;;;;;;;12.56;54.62;100466.89;1675196;84;21589;-52
2022/01/05 06:50:00;;;;;;;18.02;6.12;;;;;;;12.58;54.65;100457.26;1672765;85;21624;-53
2022/01/05 06:52:26;;;;;;;15.45;5.65;;;;;;;12.60;54.54;100454.14;1697926;83;21022;-53
2022/01/05 06:54:53;;;;;;;20.35;6.65;;;;;;;12.64;54.38;100467.48;1700128;83;21004;-53
2022/01/05 06:57:19;;;;;;;11.08;4.80;;;;;;;12.66;54.34;100469.59;1709429;83;21144;-53
2022/01/05 06:59:46;;;;;;;8.03;4.28;;;;;;;12.69;54.24;100478.63;1696004;83;21003;-52
2022/01/05 07:02:12;;;;;;;6.65;3.80;;;;;;;12.75;54.04;100488.86;1686603;83;21045;-53
2022/01/05 07:04:39;;;;;;;10.35;4.22;;;;;;;12.78;53.79;100486.12;1686461;83;21043;-52
2022/01/05 07:07:07;;;;;;;5.10;3.42;;;;;;;12.83;53.77;100485.53;1679050;82;21057;-52
2022/01/05 07:09:35;;;;;;;7.53;4.45;;;;;;;12.89;53.52;100494.45;1675131;84;21577;-52
2022/01/05 07:12:02;;;;;;;8.28;4.72;;;;;;;12.94;53.21;100499.04;1632178;86;21588;-53
2022/01/05 07:14:29;;;;;;;8.70;4.55;;;;;;;12.99;52.98;100502.36;1675070;84;21527;-53
2022/01/05 07:16:55;;;;;;;10.85;4.20;;;;;;;13.04;52.93;100508.28;1694398;83;21495;-53
2022/01/05 07:19:22;;;;;;;7.95;4.50;;;;;;;13.08;52.83;100499.42;1693121;83;21057;-52
2022/01/05 07:21:48;;;;;;;8.58;4.35;;;;;;;13.13;52.61;100499.27;1685249;84;21046;-52
2022/01/05 07:24:17;;;;;;;9.90;4.50;;;;;;;13.16;52.44;100490.03;1683026;83;21078;-53
2022/01/05 07:26:44;;;;;;;9.08;4.35;;;;;;;13.18;52.18;100493.88;1689586;83;21122;-52
2022/01/05 07:29:16;;;;;;;8.70;4.83;;;;;;;13.18;52.13;100503.03;1702484;83;21541;-53
2022/01/05 07:31:43;;;;;;;9.15;5.60;;;;;;;13.18;52.09;100500.41;1707518;83;21035;-52
2022/01/05 07:34:09;;;;;;;11.78;6.12;;;;;;;13.18;52.07;100505.64;1695979;83;20960;-52
2022/01/05 07:36:36;;;;;;;14.03;5.47;;;;;;;13.19;52.04;100504.75;1693474;83;21588;-52
2022/01/05 07:39:04;;;;;;;13.08;5.40;;;;;;;13.20;52.03;100504.69;1692035;83;21042;-52
2022/01/05 07:41:33;;;;;;;13.58;5.22;;;;;;;13.21;51.99;100505.55;1695138;82;21859;-52
2022/01/05 07:44:01;;;;;;;15.05;6.10;;;;;;;13.20;52.10;100504.69;1669876;84;21061;-53
2022/01/05 07:46:28;;;;;;;14.60;5.58;;;;;;;13.14;52.21;100503.61;1690838;81;21096;-53
2022/01/05 07:48:54;;;;;;;16.17;5.47;;;;;;;13.02;52.57;100511.37;1698933;83;21009;-52
2022/01/05 07:51:20;;;;;;;12.35;5.80;;;;;;;13.03;52.46;100513.09;1696054;83;21053;-52
2022/01/05 07:53:47;;;;;;;11.50;4.37;;;;;;;12.99;52.44;100511.50;1700689;83;21040;-52
2022/01/05 07:56:14;;;;;;;8.48;4.15;;;;;;;12.96;52.39;100515.50;1699171;83;21050;-52
2022/01/05 07:58:40;;;;;;;5.28;4.33;;;;;;;12.96;52.23;100519.42;1704754;83;20976;-52
2022/01/05 08:01:06;;;;;;;4.95;4.12;;;;;;;12.97;52.23;100511.14;1693435;83;21019;-53
2022/01/05 08:03:33;;;;;;;5.55;4.20;;;;;;;13.01;52.16;100514.91;1702471;83;20983;-52
2022/01/05 08:06:04;;;;;;;4.78;3.87;;;;;;;13.05;51.96;100520.45;1710220;83;21039;-53
2022/01/05 08:08:32;;;;;;;5.70;3.92;;;;;;;13.11;51.83;100525.08;1661111;86;21621;-52
2022/01/05 08:10:59;;;;;;;4.72;3.80;;;;;;;13.15;51.62;100521.44;1653674;86;21081;-53
2022/01/05 08:13:25;;;;;;;5.50;3.50;;;;;;;13.17;51.56;100518.33;1626920;86;21597;-53
2022/01/05 08:15:52;;;;;;;5.80;4.33;;;;;;;13.20;51.47;100522.11;1648372;84;21565;-53
2022/01/05 08:18:20;;;;;;;5.60;3.77;;;;;;;13.21;51.45;100523.83;1655135;84;21562;-52
2022/01/05 08:20:47;;;;;;;5.20;4.70;;;;;;;13.22;51.39;100522.91;1660618;85;21072;-53
2022/01/05 08:23:18;;;;;;;6.58;4.53;;;;;;;13.23;51.48;100511.56;1645170;85;21098;-53
2022/01/05 08:25:44;;;;;;;5.67;4.50;;;;;;;13.24;51.43;100511.95;1642412;85;21054;-54
2022/01/05 08:28:11;;;;;;;6.25;4.37;;;;;;;13.26;51.44;100508.83;1661838;85;21062;-53
2022/01/05 08:30:39;;;;;;;6.17;4.25;;;;;;;13.28;51.58;100499.17;1648471;86;21148;-53
2022/01/05 08:33:06;;;;;;;4.67;4.17;;;;;;;13.32;51.54;100495.53;1650636;86;21100;-53
2022/01/05 08:35:33;;;;;;;7.03;4.60;;;;;;;13.38;51.46;100492.69;1659310;84;21151;-53
2022/01/05 08:37:59;;;;;;;8.30;4.50;;;;;;;13.44;51.51;100489.84;1650056;86;21035;-53
2022/01/05 08:40:26;;;;;;;6.08;4.00;;;;;;;13.50;51.62;100494.84;1648088;86;21162;-53
2022/01/05 08:42:54;;;;;;;5.90;5.17;;;;;;;13.58;51.38;100495.44;1646414;85;21559;-53
2022/01/05 08:45:21;;;;;;;8.93;5.25;;;;;;;13.66;51.14;100501.22;1656108;85;21073;-53
2022/01/05 08:47:49;;;;;;;5.78;4.60;;;;;;;13.73;51.17;100495.69;1667136;84;21154;-53
2022/01/05 08:50:18;;;;;;;7.35;5.70;;;;;;;13.82;51.40;100491.86;1650947;84;21023;-53
2022/01/05 08:52:44;;;;;;;6.60;5.05;;;;;;;13.91;51.12;100490.18;1656652;85;21668;-53
2022/01/05 08:55:11;;;;;;;5.47;4.67;;;;;;;14.00;50.81;100496.37;1657451;84;21514;-54
2022/01/05 08:57:40;;;;;;;6.62;4.53;;;;;;;14.05;50.57;100493.12;1652841;85;21046;-53
2022/01/05 09:00:07;;;;;;;5.12;4.62;;;;;;;14.07;50.67;100484.77;1653635;86;21084;-53
2022/01/05 09:02:33;;;;;;;7.03;4.87;;;;;;;14.16;50.75;100489.60;1671398;84;21049;-53
2022/01/05 09:05:00;;;;;;;8.48;5.83;;;;;;;14.21;50.69;100490.28;1683910;81;21045;-53
2022/01/05 09:07:26;;;;;;;7.45;5.72;;;;;;;14.27;50.66;100486.55;1693590;82;21023;-53
2022/01/05 09:09:53;;;;;;;5.42;4.58;;;;;;;14.36;50.58;100488.36;1675014;84;21007;-53
2022/01/05 09:12:19;;;;;;;6.35;5.67;;;;;;;14.44;50.52;100487.61;1682848;84;21084;-53
2022/01/05 09:14:46;;;;;;;11.68;6.60;;;;;;;14.52;50.39;100484.66;1693070;83;21047;-54
2022/01/05 09:17:13;;;;;;;8.65;6.65;;;;;;;14.58;50.15;100490.50;1703721;83;21002;-53
2022/01/05 09:19:39;;;;;;;6.95;5.95;;;;;;;14.62;50.08;100489.45;1699506;83;21040;-53
2022/01/05 09:22:05;;;;;;;14.13;5.78;;;;;;;14.67;49.96;100494.02;1689729;83;21002;-53
2022/01/05 09:24:32;;;;;;;11.28;4.90;;;;;;;14.69;49.97;100503.97;1704336;83;21089;-53
2022/01/05 09:27:03;;;;;;;6.78;4.42;;;;;;;14.63;49.99;100495.55;1695229;83;21551;-53
2022/01/05 09:29:31;;;;;;;10.28;4.78;;;;;;;14.52;50.07;100500.38;1694548;82;21067;-53
2022/01/05 09:32:02;;;;;;;9.78;5.47;;;;;;;14.38;50.30;100483.08;1692738;83;21512;-55
2022/01/05 09:34:26;;;;;;;10.95;5.35;;;;;;;14.32;50.47;100480.23;1683111;83;21030;-53
2022/01/05 09:36:58;;;;;;;12.07;6.20;;;;;;;14.27;50.55;100474.33;1647619;86;21394;-53
2022/01/05 09:42:07;;;;;;;11.60;5.85;;;;;;;14.24;51.02;100477.05;1670623;84;21105;-52
2022/01/05 09:44:38;;;;;;;11.03;4.67;;;;;;;14.22;51.40;100476.27;1674873;84;21034;-52
2022/01/05 09:47:31;;;;;;;7.55;3.52;;;;;;;14.21;51.48;100471.97;1670071;85;21017;-53
2022/01/05 09:50:03;;;;;;;9.10;4.30;;;;;;;14.17;51.58;100475.62;1638733;86;21088;-52
2022/01/05 09:52:31;;;;;;;10.68;4.40;;;;;;;14.13;51.82;100476.66;1678754;83;21180;-52
2022/01/05 09:54:58;;;;;;;8.75;4.03;;;;;;;14.12;51.90;100480.17;1680346;85;21018;-55
2022/01/05 09:57:24;;;;;;;14.58;4.47;;;;;;;14.10;51.92;100478.08;1671440;84;21026;-54
2022/01/05 09:59:51;;;;;;;9.08;3.83;;;;;;;14.07;52.01;100466.45;1683903;84;21993;-55
2022/01/05 10:02:19;;;;;;;11.88;5.33;;;;;;;14.03;51.94;100451.78;1673601;84;21089;-55
2022/01/05 10:04:46;;;;;;;13.48;5.15;;;;;;;14.02;51.95;100447.45;1639759;86;21130;-55
2022/01/05 10:07:25;;;;;;;9.50;4.35;;;;;;;14.01;52.04;100449.69;1679812;83;21043;-55
2022/01/05 10:09:56;;;;;;;11.03;4.62;;;;;;;14.01;52.21;100449.69;1675510;82;21057;-53
2022/01/05 10:12:22;;;;;;;11.03;4.47;;;;;;;14.02;52.37;100446.59;1685134;83;21109;-53
2022/01/05 10:14:49;;;;;;;10.90;4.42;;;;;;;14.01;52.42;100437.92;1696115;83;21039;-53
2022/01/05 10:17:25;;;;;;;10.95;3.98;;;;;;;14.06;52.17;100446.86;1691801;83;21042;-53
2022/01/05 10:20:05;;;;;;;11.40;4.30;;;;;;;14.05;52.23;100444.73;1626516;86;21155;-53
2022/01/05 10:22:41;;;;;;;11.12;4.65;;;;;;;14.06;52.16;100443.80;1594471;88;21063;-53
2022/01/05 10:25:20;;;;;;;10.72;3.60;;;;;;;14.07;52.11;100444.20;1572694;88;21058;-53
2022/01/05 10:28:02;;;;;;;14.78;5.10;;;;;;;14.06;52.07;100438.56;1574727;89;21222;-52
2022/01/05 10:30:39;;;;;;;;;;;;;;;14.02;52.23;100444.84;1576529;89;21070;-52
2022/01/05 10:33:07;;;;;;;12.43;4.37;;;;;;;13.93;52.61;100437.34;1564982;90;20176;-54
2022/01/05 10:35:34;;;;;;;7.83;3.30;;;;;;;13.84;52.97;100440.34;1577682;90;21141;-54
2022/01/05 10:38:09;;;;;;;6.58;3.67;;;;;;;13.83;52.97;100436.87;1548738;90;21082;-55
2022/01/05 10:40:38;;;;;;;9.85;4.03;;;;;;;13.81;53.20;100437.84;1577168;90;21109;-54
2022/01/05 10:43:13;;;;;;;11.70;4.45;;;;;;;13.81;53.20;100437.84;1555035;90;21084;-54
2022/01/05 10:45:47;;;;;;;9.83;4.28;;;;;;;13.83;53.21;100438.63;1507498;93;21117;-54
2022/01/05 10:48:17;;;;;;;10.95;4.28;;;;;;;13.84;53.13;100431.20;1499947;94;21132;-54
2022/01/05 10:50:47;;;;;;;9.00;3.85;;;;;;;13.84;53.24;100427.27;1504253;93;21146;-54
2022/01/05 10:53:15;;;;;;;10.65;4.05;;;;;;;13.87;53.31;100416.67;1520117;92;21163;-54
2022/01/05 10:55:45;;;;;;;8.08;4.30;;;;;;;13.87;53.26;100412.75;1534949;91;22524;-54
2022/01/05 10:58:17;;;;;;;9.20;4.08;;;;;;;13.87;53.24;100414.05;1577438;88;21121;-54
2022/01/05 11:00:46;;;;;;;8.55;4.50;;;;;;;13.84;53.23;100419.43;1543303;91;21081;-54
2022/01/05 11:06:17;;;;;;;7.75;4.28;;;;;;;13.84;53.14;100420.73;1494049;95;21102;-54
2022/01/05 11:09:00;;;;;;;8.13;5.30;;;;;;;13.80;53.29;100413.92;1493150;93;21225;-54
2022/01/05 11:11:42;;;;;;;9.98;4.33;;;;;;;13.76;53.41;100411.91;1509005;93;21090;-54
2022/01/05 11:14:12;;;;;;;8.78;4.05;;;;;;;13.76;53.44;100407.13;1499927;93;21088;-54
2022/01/05 11:16:47;;;;;;;10.45;4.78;;;;;;;13.77;53.46;100403.58;1550017;90;21074;-53
2022/01/05 11:19:23;;;;;;;10.35;4.70;;;;;;;13.74;53.39;100394.56;1493960;94;21108;-55
2022/01/05 11:22:14;;;;;;;12.33;6.00;;;;;;;13.70;53.35;100385.14;1540852;91;21372;-55
2022/01/05 11:24:45;;;;;;;11.22;6.08;;;;;;;13.70;53.44;100389.89;1542811;92;21115;-54
2022/01/05 11:29:51;;;;;;;12.47;5.47;;;;;;;13.76;53.15;100384.89;1469558;96;21120;-53